Time;durP1;ratioP1;P1;durP2;ratioP2;P2;SDS_P1;SDS_P2;PMS_P1;PMS_P2;Temp;Humidity;BMP_temperature;BMP_pressure;BME280_temperature;BME280_humidity;BME280_pressure;Samples;Min_cycle;Max_cycle;Signal;HPM_P1;HPM_P2
2023/06/17 00:00:56;;;;;;;5.15;3.95;;;18.60;59.80;;;;;;2098025;28;20032;-71
2023/06/17 00:01:56;;;;;;;4.63;3.60;;;18.60;60.00;;;;;;2101168;28;20110;-71
2023/06/17 00:02:57;;;;;;;3.30;3.10;;;18.60;60.20;;;;;;2099801;28;20056;-71
2023/06/17 00:03:57;;;;;;;5.20;3.95;;;18.50;60.10;;;;;;2099842;28;20028;-71
2023/06/17 00:04:58;;;;;;;3.50;3.20;;;18.50;60.40;;;;;;2099430;28;20037;-71
2023/06/17 00:05:58;;;;;;;4.38;3.88;;;18.50;60.10;;;;;;2100692;28;20032;-71
2023/06/17 00:07:00;;;;;;;7.68;3.88;;;18.50;60.30;;;;;;2099838;28;20034;-71
2023/06/17 00:08:01;;;;;;;5.40;3.25;;;18.50;60.50;;;;;;2100658;28;20063;-71
2023/06/17 00:09:02;;;;;;;4.30;3.90;;;18.40;59.60;;;;;;2100138;28;20023;-71
2023/06/17 00:10:03;;;;;;;5.97;3.80;;;18.40;59.80;;;;;;2099879;28;20039;-71
2023/06/17 00:11:04;;;;;;;3.78;3.47;;;18.40;60.50;;;;;;2098299;28;20020;-71
2023/06/17 00:12:05;;;;;;;4.70;3.72;;;18.40;60.80;;;;;;2101252;28;20052;-71
2023/06/17 00:13:07;;;;;;;6.55;4.15;;;18.40;60.90;;;;;;2099994;28;20028;-71
2023/06/17 00:14:08;;;;;;;3.85;3.47;;;18.30;61.50;;;;;;2100864;28;20082;-71
2023/06/17 00:15:10;;;;;;;4.80;3.63;;;18.30;61.90;;;;;;2099684;28;20483;-70
2023/06/17 00:16:12;;;;;;;3.67;3.38;;;18.30;62.00;;;;;;2101374;28;20036;-70
2023/06/17 00:17:14;;;;;;;4.75;3.92;;;18.30;60.90;;;;;;2099943;28;20024;-70
2023/06/17 00:18:19;;;;;;;4.32;3.83;;;18.20;60.80;;;;;;2098897;28;20029;-70
2023/06/17 00:19:20;;;;;;;4.47;3.53;;;18.20;61.30;;;;;;2098966;28;20028;-70
2023/06/17 00:20:23;;;;;;;4.35;3.80;;;18.20;60.70;;;;;;2096964;28;20016;-70
2023/06/17 00:21:23;;;;;;;4.82;4.00;;;18.20;60.90;;;;;;2099032;28;20081;-70
2023/06/17 00:22:25;;;;;;;3.85;3.55;;;18.20;61.70;;;;;;2098708;28;20028;-70
2023/06/17 00:23:25;;;;;;;4.07;3.40;;;18.10;61.40;;;;;;2098381;28;20032;-70
2023/06/17 00:24:26;;;;;;;4.07;3.33;;;18.10;60.70;;;;;;2098362;28;20033;-70
2023/06/17 00:25:26;;;;;;;4.45;3.78;;;18.10;60.60;;;;;;2098001;28;20058;-70
2023/06/17 00:26:27;;;;;;;4.25;3.30;;;18.10;61.50;;;;;;2098903;28;20110;-70
2023/06/17 00:27:27;;;;;;;4.35;3.95;;;18.10;62.00;;;;;;2101866;28;20023;-70
2023/06/17 00:28:28;;;;;;;4.43;4.03;;;18.10;62.40;;;;;;2101239;28;20024;-70
2023/06/17 00:29:28;;;;;;;4.93;3.65;;;18.10;62.90;;;;;;2102665;28;20020;-70
2023/06/17 00:30:29;;;;;;;5.63;3.83;;;18.10;62.60;;;;;;2101018;28;20048;-70
2023/06/17 00:31:29;;;;;;;3.92;3.40;;;18.00;62.90;;;;;;2098630;28;20021;-70
2023/06/17 00:32:30;;;;;;;6.30;3.63;;;18.00;62.80;;;;;;2099865;28;20369;-70
2023/06/17 00:33:31;;;;;;;3.95;3.60;;;18.00;63.10;;;;;;2098556;28;20107;-70
2023/06/17 00:34:31;;;;;;;6.75;4.13;;;18.00;63.50;;;;;;2099388;28;20083;-70
2023/06/17 00:35:33;;;;;;;4.00;3.50;;;18.00;63.30;;;;;;2098667;28;20547;-70
2023/06/17 00:36:33;;;;;;;5.88;3.75;;;17.90;63.40;;;;;;2099423;28;20527;-70
2023/06/17 00:37:34;;;;;;;7.07;3.83;;;17.90;63.70;;;;;;2098997;28;20392;-70
2023/06/17 00:38:34;;;;;;;4.13;3.63;;;17.90;63.70;;;;;;2099754;28;20519;-70
2023/06/17 00:39:35;;;;;;;4.40;4.00;;;17.90;63.50;;;;;;2100291;28;20107;-70
2023/06/17 00:40:35;;;;;;;5.47;3.95;;;17.80;63.10;;;;;;2098506;28;20017;-70
2023/06/17 00:41:36;;;;;;;4.05;3.60;;;17.80;63.30;;;;;;2101093;28;20108;-70
2023/06/17 00:42:36;;;;;;;5.35;4.30;;;17.80;64.30;;;;;;2099034;28;20093;-70
2023/06/17 00:43:37;;;;;;;4.95;4.43;;;17.80;64.60;;;;;;2098095;28;20411;-70
2023/06/17 00:44:41;;;;;;;4.80;4.00;;;17.80;64.50;;;;;;2097466;28;20103;-70
2023/06/17 00:45:42;;;;;;;5.18;3.88;;;17.70;64.60;;;;;;2100327;28;20028;-70
2023/06/17 00:46:48;;;;;;;4.97;4.35;;;17.70;64.70;;;;;;2100421;28;20062;-70
2023/06/17 00:47:48;;;;;;;5.22;4.20;;;17.70;64.60;;;;;;2097710;28;20024;-70
2023/06/17 00:48:51;;;;;;;4.57;4.18;;;17.70;64.80;;;;;;2099943;28;20026;-70
2023/06/17 00:49:53;;;;;;;8.98;4.20;;;17.70;64.10;;;;;;2100235;28;20032;-71
2023/06/17 00:51:01;;;;;;;5.63;4.20;;;17.70;63.50;;;;;;2099918;28;20095;-71
2023/06/17 00:52:10;;;;;;;5.22;4.63;;;17.60;64.30;;;;;;2098689;28;20025;-71
2023/06/17 00:53:11;;;;;;;6.22;4.68;;;17.60;65.10;;;;;;2100592;28;20024;-71
2023/06/17 00:54:15;;;;;;;5.00;4.43;;;17.60;65.10;;;;;;2103010;28;20023;-71
2023/06/17 00:55:16;;;;;;;8.75;4.68;;;17.60;65.20;;;;;;2097940;28;20378;-70
2023/06/17 00:56:17;;;;;;;5.00;4.40;;;17.60;65.50;;;;;;2098199;28;20039;-70
2023/06/17 00:57:17;;;;;;;6.50;4.63;;;17.50;65.60;;;;;;2098353;28;20027;-70
2023/06/17 00:58:19;;;;;;;5.43;4.65;;;17.50;65.30;;;;;;2097415;28;20035;-70
2023/06/17 00:59:19;;;;;;;4.72;4.32;;;17.50;66.00;;;;;;2096555;28;20017;-70
2023/06/17 01:00:20;;;;;;;6.68;4.47;;;17.50;66.10;;;;;;2097484;28;20039;-70
2023/06/17 01:01:21;;;;;;;5.40;4.75;;;17.50;65.60;;;;;;2098914;28;20028;-70
2023/06/17 01:02:25;;;;;;;6.97;4.60;;;17.50;65.70;;;;;;2098432;28;20059;-70
2023/06/17 01:03:25;;;;;;;5.43;4.85;;;17.40;66.10;;;;;;2098918;28;20030;-70
2023/06/17 01:04:28;;;;;;;7.80;4.57;;;17.40;66.20;;;;;;2098234;28;20024;-70
2023/06/17 01:05:29;;;;;;;6.57;4.50;;;17.40;66.80;;;;;;2096836;28;20016;-70
2023/06/17 01:06:52;;;;;;;5.35;4.38;;;17.40;66.90;;;;;;2100153;28;20446;-70
2023/06/17 01:08:12;;;;;;;5.50;4.35;;;17.30;67.20;;;;;;2096783;28;20146;-70
2023/06/17 01:09:16;;;;;;;;;;;17.30;67.40;;;;;;2099675;28;20367;-70
2023/06/17 01:10:54;;;;;;;5.10;4.53;;;17.20;68.40;;;;;;2098552;28;20266;-70
2023/06/17 01:11:56;;;;;;;5.03;4.10;;;17.20;68.90;;;;;;2099320;28;20028;-70
2023/06/17 01:12:58;;;;;;;5.18;4.32;;;17.20;66.90;;;;;;2101895;28;20074;-70
2023/06/17 01:14:00;;;;;;;4.60;3.80;;;17.10;67.30;;;;;;2094114;28;20033;-70
2023/06/17 01:15:01;;;;;;;5.15;4.00;;;17.10;67.00;;;;;;2100771;28;20024;-70
2023/06/17 01:16:04;;;;;;;5.47;4.57;;;17.10;67.30;;;;;;2097058;28;20021;-70
2023/06/17 01:17:10;;;;;;;4.82;3.67;;;17.10;67.90;;;;;;2099577;28;20096;-70
2023/06/17 01:18:11;;;;;;;4.60;4.20;;;17.10;68.00;;;;;;2098965;28;20101;-70
2023/06/17 01:19:20;;;;;;;4.88;3.85;;;17.10;68.20;;;;;;2098785;28;20099;-70
2023/06/17 01:20:22;;;;;;;4.65;3.70;;;17.10;68.30;;;;;;2100573;28;20071;-70
2023/06/17 01:21:23;;;;;;;4.63;4.07;;;17.10;68.70;;;;;;2098263;28;20476;-70
2023/06/17 01:22:25;;;;;;;6.38;4.50;;;17.00;69.00;;;;;;2097256;28;20361;-70
2023/06/17 01:23:34;;;;;;;5.72;3.80;;;17.00;69.10;;;;;;2097434;28;20032;-70
2023/06/17 01:24:36;;;;;;;5.22;4.50;;;17.00;69.40;;;;;;2099412;28;20024;-70
2023/06/17 01:25:37;;;;;;;5.40;4.43;;;17.00;69.40;;;;;;2099035;28;20119;-70
2023/06/17 01:26:38;;;;;;;6.93;4.95;;;16.90;69.20;;;;;;2099368;28;20020;-70
2023/06/17 01:27:39;;;;;;;6.03;4.65;;;16.90;69.60;;;;;;2100581;28;20063;-70
2023/06/17 01:28:40;;;;;;;6.63;4.50;;;16.90;70.00;;;;;;2100453;28;20727;-70
2023/06/17 01:29:41;;;;;;;5.28;4.88;;;16.90;69.90;;;;;;2099560;28;20052;-70
2023/06/17 01:30:47;;;;;;;5.15;4.75;;;16.90;70.10;;;;;;2098737;28;20020;-70
2023/06/17 01:31:49;;;;;;;5.20;4.70;;;16.80;69.60;;;;;;2098296;28;20054;-70
2023/06/17 01:32:52;;;;;;;5.32;4.53;;;16.80;68.60;;;;;;2098542;28;20024;-70
2023/06/17 01:33:56;;;;;;;6.38;4.78;;;16.80;69.20;;;;;;2099439;28;20044;-70
2023/06/17 01:35:05;;;;;;;5.90;5.30;;;16.80;70.90;;;;;;2099572;28;20051;-70
2023/06/17 01:36:14;;;;;;;6.82;5.10;;;16.80;70.80;;;;;;2102274;28;20032;-70
2023/06/17 01:37:19;;;;;;;5.38;4.88;;;16.70;71.20;;;;;;2101127;28;20036;-70
2023/06/17 01:38:29;;;;;;;4.75;4.35;;;16.70;70.90;;;;;;2098312;28;20108;-70
2023/06/17 01:39:31;;;;;;;;;;;16.70;71.10;;;;;;2099200;28;20070;-70
2023/06/17 01:40:33;;;;;;;5.63;4.80;;;16.60;71.70;;;;;;2095494;28;19915;-70
2023/06/17 01:41:39;;;;;;;5.10;4.65;;;16.60;71.70;;;;;;2097738;28;20028;-70
2023/06/17 01:42:45;;;;;;;7.15;5.35;;;16.60;71.80;;;;;;2098891;28;20021;-70
2023/06/17 01:43:49;;;;;;;8.48;4.65;;;16.60;71.90;;;;;;2096831;28;20027;-70
2023/06/17 01:44:51;;;;;;;5.45;4.90;;;16.50;72.20;;;;;;2099603;28;20487;-70
2023/06/17 01:45:57;;;;;;;7.10;5.25;;;16.60;72.00;;;;;;2099138;28;20528;-70
2023/06/17 01:46:58;;;;;;;7.00;5.00;;;16.60;71.90;;;;;;2099263;28;20046;-70
2023/06/17 01:47:59;;;;;;;5.00;4.60;;;16.50;72.10;;;;;;2097263;28;20037;-70
2023/06/17 01:49:00;;;;;;;6.13;4.78;;;16.50;72.60;;;;;;2097856;28;20043;-70
2023/06/17 01:50:03;;;;;;;5.05;4.28;;;16.50;72.90;;;;;;2097609;28;20055;-70
2023/06/17 01:51:04;;;;;;;4.82;4.32;;;16.50;73.20;;;;;;2098474;28;20069;-70
2023/06/17 01:52:07;;;;;;;9.80;5.18;;;16.50;73.60;;;;;;2098590;28;20388;-70
2023/06/17 01:53:07;;;;;;;5.25;4.75;;;16.40;73.50;;;;;;2097668;28;20016;-70
2023/06/17 01:54:08;;;;;;;5.72;4.85;;;16.40;73.40;;;;;;2098244;28;20606;-70
2023/06/17 01:55:08;;;;;;;5.25;4.85;;;16.40;73.90;;;;;;2096874;28;20192;-70
2023/06/17 01:56:09;;;;;;;5.10;4.57;;;16.40;73.60;;;;;;2097813;28;20032;-70
2023/06/17 01:57:10;;;;;;;6.05;4.72;;;16.40;73.70;;;;;;2096968;28;20032;-70
2023/06/17 01:58:10;;;;;;;5.70;4.85;;;16.40;74.40;;;;;;2098185;28;20032;-70
2023/06/17 01:59:11;;;;;;;7.40;4.88;;;16.40;73.90;;;;;;2099090;28;20048;-70
2023/06/17 02:00:13;;;;;;;4.70;4.30;;;16.40;73.40;;;;;;2097650;28;20433;-70
2023/06/17 02:01:13;;;;;;;6.32;4.82;;;16.40;73.30;;;;;;2100208;28;20031;-70
2023/06/17 02:02:14;;;;;;;6.47;5.00;;;16.30;74.60;;;;;;2100534;28;20811;-70
2023/06/17 02:03:15;;;;;;;6.05;4.88;;;16.30;74.60;;;;;;2099244;28;20028;-70
2023/06/17 02:04:16;;;;;;;5.05;4.60;;;16.30;75.30;;;;;;2098290;28;20039;-70
2023/06/17 02:05:18;;;;;;;5.97;5.05;;;16.30;75.60;;;;;;2096129;28;20032;-70
2023/06/17 02:06:18;;;;;;;7.60;4.78;;;16.30;76.00;;;;;;2102755;28;20039;-70
2023/06/17 02:07:25;;;;;;;5.43;4.80;;;16.30;76.30;;;;;;2102221;28;20040;-70
2023/06/17 02:08:26;;;;;;;6.00;4.90;;;16.20;76.20;;;;;;2098913;28;20032;-70
2023/06/17 02:09:27;;;;;;;5.75;4.18;;;16.20;76.70;;;;;;2099030;28;20489;-70
2023/06/17 02:10:27;;;;;;;4.90;4.38;;;16.20;76.20;;;;;;2098575;28;20403;-70
2023/06/17 02:11:28;;;;;;;5.13;4.25;;;16.20;75.90;;;;;;2099896;28;20178;-70
2023/06/17 02:12:29;;;;;;;6.55;4.28;;;16.20;75.90;;;;;;2099893;28;20035;-70
2023/06/17 02:13:29;;;;;;;5.40;4.00;;;16.20;75.90;;;;;;2100071;28;20043;-70
2023/06/17 02:14:30;;;;;;;4.63;4.22;;;16.20;76.50;;;;;;2101818;28;20020;-70
2023/06/17 02:15:31;;;;;;;5.72;4.07;;;16.10;76.50;;;;;;2100473;28;20073;-70
2023/06/17 02:16:31;;;;;;;4.50;4.10;;;16.10;77.20;;;;;;2100223;28;20017;-70
2023/06/17 02:17:35;;;;;;;5.13;4.63;;;16.10;77.50;;;;;;2100462;28;20024;-70
2023/06/17 02:18:35;;;;;;;5.28;4.78;;;16.10;77.30;;;;;;2100884;28;20025;-70
2023/06/17 02:19:39;;;;;;;6.00;4.95;;;16.10;77.80;;;;;;2099665;28;20665;-70
2023/06/17 02:20:40;;;;;;;5.50;4.60;;;16.10;78.10;;;;;;2100001;28;20466;-70
2023/06/17 02:21:42;;;;;;;7.93;4.13;;;16.00;78.50;;;;;;2100833;28;20767;-70
2023/06/17 02:22:43;;;;;;;5.50;4.63;;;16.00;78.20;;;;;;2099025;28;20058;-70
2023/06/17 02:23:48;;;;;;;5.43;4.10;;;16.00;78.80;;;;;;2098112;28;20025;-70
2023/06/17 02:24:48;;;;;;;6.20;4.95;;;16.00;79.10;;;;;;2098734;28;20403;-70
2023/06/17 02:25:49;;;;;;;4.90;4.38;;;16.00;79.40;;;;;;2099584;28;20119;-70
2023/06/17 02:26:50;;;;;;;5.60;4.68;;;16.00;79.50;;;;;;2100336;28;20063;-70
2023/06/17 02:27:51;;;;;;;6.35;4.35;;;16.00;79.90;;;;;;2099775;28;20017;-70
2023/06/17 02:28:52;;;;;;;5.47;4.75;;;15.90;79.90;;;;;;2098682;28;20020;-70
2023/06/17 02:29:52;;;;;;;4.88;4.32;;;15.90;79.40;;;;;;2100574;28;20055;-70
2023/06/17 02:30:53;;;;;;;5.80;4.53;;;15.90;79.00;;;;;;2099491;28;20029;-70
2023/06/17 02:31:53;;;;;;;5.10;4.60;;;15.90;79.20;;;;;;2100321;28;20021;-70
2023/06/17 02:32:54;;;;;;;5.35;4.07;;;15.90;80.40;;;;;;2101752;28;20020;-70
2023/06/17 02:33:55;;;;;;;5.63;4.35;;;15.90;80.00;;;;;;2099621;28;20020;-70
2023/06/17 02:34:57;;;;;;;5.03;4.53;;;15.80;80.20;;;;;;2098622;28;20039;-70
2023/06/17 02:35:57;;;;;;;4.82;4.15;;;15.80;80.10;;;;;;2100383;28;20046;-70
2023/06/17 02:36:58;;;;;;;8.02;5.15;;;15.80;80.10;;;;;;2099739;28;20040;-70
2023/06/17 02:37:59;;;;;;;8.13;3.95;;;15.80;80.90;;;;;;2100332;28;20036;-70
2023/06/17 02:39:00;;;;;;;5.70;4.72;;;15.80;80.50;;;;;;2099448;28;20028;-70
2023/06/17 02:40:00;;;;;;;5.10;4.60;;;15.80;80.80;;;;;;2097387;28;20021;-70
2023/06/17 02:41:01;;;;;;;4.70;4.13;;;15.70;81.20;;;;;;2099551;28;20020;-70
2023/06/17 02:42:01;;;;;;;5.68;4.57;;;15.70;81.30;;;;;;2099471;28;20047;-70
2023/06/17 02:43:02;;;;;;;4.90;4.40;;;15.70;82.10;;;;;;2100395;28;20129;-70
2023/06/17 02:44:02;;;;;;;9.63;4.60;;;15.70;82.20;;;;;;2099507;28;20111;-70
2023/06/17 02:45:04;;;;;;;4.45;4.10;;;15.70;81.90;;;;;;2101557;28;20116;-70
2023/06/17 02:46:05;;;;;;;4.88;4.38;;;15.70;81.70;;;;;;2099469;28;20020;-70
2023/06/17 02:47:06;;;;;;;5.05;4.55;;;15.70;82.80;;;;;;2101245;28;20549;-70
2023/06/17 02:48:07;;;;;;;4.93;4.47;;;15.60;83.80;;;;;;2100064;28;20516;-70
2023/06/17 02:49:07;;;;;;;5.47;4.82;;;15.60;83.90;;;;;;2100575;28;20434;-70
2023/06/17 02:50:08;;;;;;;7.40;4.88;;;15.60;84.50;;;;;;2099910;28;20020;-70
2023/06/17 02:51:09;;;;;;;5.07;4.57;;;15.60;84.60;;;;;;2099887;28;20067;-70
2023/06/17 02:52:09;;;;;;;6.85;4.60;;;15.60;84.40;;;;;;2100125;28;20113;-70
2023/06/17 02:53:10;;;;;;;5.95;4.63;;;15.60;83.70;;;;;;2100376;28;20032;-70
2023/06/17 02:54:11;;;;;;;5.82;4.68;;;15.60;83.80;;;;;;2100191;28;20020;-70
2023/06/17 02:55:11;;;;;;;6.50;4.63;;;15.60;84.40;;;;;;2098641;28;20046;-70
2023/06/17 02:56:12;;;;;;;9.80;5.20;;;15.60;85.00;;;;;;2101723;28;20035;-70
2023/06/17 02:57:12;;;;;;;5.03;4.47;;;15.60;85.90;;;;;;2100816;28;20119;-70
2023/06/17 02:58:14;;;;;;;7.88;5.00;;;15.60;85.90;;;;;;2098776;28;20039;-70
2023/06/17 02:59:15;;;;;;;7.82;5.78;;;15.50;86.00;;;;;;2099880;28;20017;-70
2023/06/17 03:00:16;;;;;;;5.10;4.70;;;15.50;85.30;;;;;;2096461;28;20487;-70
2023/06/17 03:01:18;;;;;;;6.03;5.38;;;15.50;85.20;;;;;;2098239;28;20050;-70
2023/06/17 03:02:18;;;;;;;5.03;4.53;;;15.50;85.90;;;;;;2099363;28;20070;-70
2023/06/17 03:03:19;;;;;;;4.63;4.10;;;15.50;87.00;;;;;;2098635;28;20536;-70
2023/06/17 03:04:20;;;;;;;6.05;4.78;;;15.50;87.10;;;;;;2100526;28;20020;-70
2023/06/17 03:05:22;;;;;;;5.15;4.65;;;15.50;86.90;;;;;;2099344;28;20031;-70
2023/06/17 03:06:23;;;;;;;6.05;4.85;;;15.50;86.50;;;;;;2098949;28;20024;-70
2023/06/17 03:07:24;;;;;;;5.38;4.88;;;15.50;86.40;;;;;;2101163;28;20056;-70
2023/06/17 03:08:25;;;;;;;5.82;4.72;;;15.40;87.40;;;;;;2099940;28;20036;-70
2023/06/17 03:09:26;;;;;;;6.50;4.95;;;15.40;87.80;;;;;;2099707;28;20434;-70
2023/06/17 03:10:26;;;;;;;7.32;4.63;;;15.40;87.90;;;;;;2099448;28;20098;-70
2023/06/17 03:11:28;;;;;;;5.75;5.03;;;15.40;88.10;;;;;;2098144;28;20031;-70
2023/06/17 03:12:29;;;;;;;5.68;5.18;;;15.40;88.50;;;;;;2099580;28;20017;-70
2023/06/17 03:13:29;;;;;;;5.40;5.00;;;15.40;88.70;;;;;;2098996;28;20408;-70
2023/06/17 03:14:30;;;;;;;6.15;5.53;;;15.40;88.60;;;;;;2100584;28;20499;-71
2023/06/17 03:15:32;;;;;;;6.50;5.22;;;15.40;89.20;;;;;;2099536;28;20035;-71
2023/06/17 03:16:33;;;;;;;5.82;4.90;;;15.30;90.10;;;;;;2097975;28;20058;-71
2023/06/17 03:17:34;;;;;;;5.25;4.75;;;15.40;89.60;;;;;;2100925;28;20020;-70
2023/06/17 03:18:35;;;;;;;6.43;4.70;;;15.30;90.20;;;;;;2098049;28;20028;-70
2023/06/17 03:19:36;;;;;;;6.30;5.70;;;15.40;90.20;;;;;;2101005;28;20021;-70
2023/06/17 03:20:38;;;;;;;6.03;5.43;;;15.30;90.20;;;;;;2098644;28;20028;-70
2023/06/17 03:21:40;;;;;;;6.68;5.20;;;15.40;89.70;;;;;;2099259;28;20790;-70
2023/06/17 03:22:41;;;;;;;7.82;5.30;;;15.40;90.30;;;;;;2099112;28;20045;-70
2023/06/17 03:23:42;;;;;;;6.90;5.50;;;15.30;90.20;;;;;;2099190;28;20017;-70
2023/06/17 03:24:42;;;;;;;5.40;4.90;;;15.30;90.30;;;;;;2099531;28;20566;-70
2023/06/17 03:25:44;;;;;;;7.80;5.47;;;15.30;89.90;;;;;;2100534;28;20016;-70
2023/06/17 03:26:45;;;;;;;8.13;5.60;;;15.30;90.50;;;;;;2098497;28;20024;-70
2023/06/17 03:27:45;;;;;;;5.60;4.97;;;15.30;90.70;;;;;;2099258;28;20020;-70
2023/06/17 03:28:46;;;;;;;6.43;5.00;;;15.20;90.70;;;;;;2098865;28;20388;-70
2023/06/17 03:29:48;;;;;;;8.27;4.88;;;15.30;91.20;;;;;;2097075;28;20501;-70
2023/06/17 03:30:49;;;;;;;6.72;6.03;;;15.30;91.00;;;;;;2097793;28;20436;-70
2023/06/17 03:31:51;;;;;;;7.60;5.25;;;15.30;91.60;;;;;;2098660;28;20036;-70
2023/06/17 03:32:53;;;;;;;7.07;4.82;;;15.20;91.70;;;;;;2098925;28;20028;-70
2023/06/17 03:33:54;;;;;;;5.45;4.90;;;15.20;91.80;;;;;;2098643;28;20025;-70
2023/06/17 03:34:55;;;;;;;6.03;5.43;;;15.20;91.80;;;;;;2098531;28;20028;-70
2023/06/17 03:35:57;;;;;;;5.72;5.10;;;15.20;92.10;;;;;;2097600;28;20691;-70
2023/06/17 03:36:57;;;;;;;9.60;5.88;;;15.20;92.20;;;;;;2099460;28;20103;-70
2023/06/17 03:37:58;;;;;;;7.65;5.50;;;15.20;92.30;;;;;;2099474;28;20055;-70
2023/06/17 03:38:58;;;;;;;6.88;4.68;;;15.20;92.60;;;;;;2097172;28;20030;-70
2023/06/17 03:39:59;;;;;;;8.43;6.05;;;15.20;92.60;;;;;;2099530;28;20039;-70
2023/06/17 03:40:59;;;;;;;6.15;5.55;;;15.20;92.90;;;;;;2098223;28;20066;-70
2023/06/17 03:42:00;;;;;;;6.82;6.20;;;15.20;92.70;;;;;;2100241;28;20031;-70
2023/06/17 03:43:00;;;;;;;6.80;5.97;;;15.20;93.10;;;;;;2098566;28;20070;-70
2023/06/17 03:44:01;;;;;;;5.88;5.20;;;15.10;93.00;;;;;;2099954;28;20082;-70
2023/06/17 03:45:02;;;;;;;5.88;5.20;;;15.20;93.00;;;;;;2098839;28;20060;-70
2023/06/17 03:46:03;;;;;;;7.30;5.38;;;15.20;92.80;;;;;;2097962;28;20032;-70
2023/06/17 03:47:03;;;;;;;6.00;5.28;;;15.10;93.10;;;;;;2101132;28;20035;-70
2023/06/17 03:48:04;;;;;;;6.43;4.82;;;15.10;93.40;;;;;;2100601;28;20480;-70
2023/06/17 03:49:05;;;;;;;6.05;5.53;;;15.10;93.60;;;;;;2099733;28;20005;-70
2023/06/17 03:50:07;;;;;;;5.28;4.70;;;15.10;94.00;;;;;;2097472;28;20031;-70
2023/06/17 03:51:07;;;;;;;7.93;5.80;;;15.10;94.10;;;;;;2099868;28;20036;-70
2023/06/17 03:52:08;;;;;;;7.38;5.60;;;15.10;93.80;;;;;;2100032;28;20327;-70
2023/06/17 03:53:08;;;;;;;8.55;5.70;;;15.10;94.10;;;;;;2098271;28;20035;-70
2023/06/17 03:54:09;;;;;;;5.65;4.93;;;15.10;94.40;;;;;;2100576;28;20029;-70
2023/06/17 03:55:10;;;;;;;5.90;5.20;;;15.10;94.70;;;;;;2097953;28;20028;-70
2023/06/17 03:56:10;;;;;;;7.45;5.53;;;15.10;94.20;;;;;;2098183;28;20377;-70
2023/06/17 03:57:11;;;;;;;5.80;5.20;;;15.20;94.50;;;;;;2101687;28;20047;-70
2023/06/17 03:58:14;;;;;;;7.78;5.30;;;15.20;94.80;;;;;;2097679;28;20495;-70
2023/06/17 03:59:16;;;;;;;7.28;5.40;;;15.20;95.30;;;;;;2098045;28;20028;-70
2023/06/17 04:00:17;;;;;;;6.13;5.53;;;15.30;95.60;;;;;;2100740;28;20024;-70
2023/06/17 04:01:17;;;;;;;6.55;5.30;;;15.30;95.10;;;;;;2099910;28;20051;-70
2023/06/17 04:02:18;;;;;;;5.97;5.38;;;15.30;95.20;;;;;;2101920;28;20024;-70
2023/06/17 04:03:19;;;;;;;7.35;5.53;;;15.40;95.60;;;;;;2101817;28;20032;-70
2023/06/17 04:04:19;;;;;;;8.68;5.15;;;15.50;95.50;;;;;;2099817;28;20036;-70
2023/06/17 04:05:20;;;;;;;9.10;5.53;;;15.50;95.10;;;;;;2099542;28;20016;-70
2023/06/17 04:06:20;;;;;;;6.43;5.43;;;15.70;95.30;;;;;;2097946;28;20078;-70
2023/06/17 04:07:21;;;;;;;5.93;5.30;;;15.70;95.30;;;;;;2098780;28;20528;-70
2023/06/17 04:08:23;;;;;;;5.60;5.10;;;15.90;94.90;;;;;;2098354;28;20441;-70
2023/06/17 04:09:24;;;;;;;7.22;5.32;;;16.00;94.80;;;;;;2097763;28;20023;-70
2023/06/17 04:10:24;;;;;;;5.80;5.20;;;16.20;94.80;;;;;;2097962;28;20023;-70
2023/06/17 04:11:25;;;;;;;8.63;5.05;;;16.40;93.70;;;;;;2099093;28;20028;-70
2023/06/17 04:12:25;;;;;;;7.68;5.20;;;16.60;93.40;;;;;;2099741;28;20104;-70
2023/06/17 04:13:25;;;;;;;6.18;5.47;;;16.90;92.80;;;;;;2099999;28;20062;-70
2023/06/17 04:14:26;;;;;;;6.53;5.15;;;17.10;91.90;;;;;;2099120;28;20016;-70
2023/06/17 04:15:27;;;;;;;6.05;5.45;;;17.40;91.50;;;;;;2099046;28;20055;-70
2023/06/17 04:16:30;;;;;;;6.53;5.68;;;17.60;90.40;;;;;;2099110;28;20021;-70
2023/06/17 04:17:30;;;;;;;7.85;5.47;;;17.80;89.10;;;;;;2100802;28;20368;-70
2023/06/17 04:18:31;;;;;;;6.95;6.13;;;18.10;87.70;;;;;;2100214;28;20074;-70
2023/06/17 04:19:37;;;;;;;5.93;5.43;;;18.20;86.60;;;;;;2099467;28;20027;-70
2023/06/17 04:20:38;;;;;;;8.05;5.75;;;18.40;84.00;;;;;;2096614;28;20064;-70
2023/06/17 04:21:42;;;;;;;9.02;5.40;;;18.60;83.60;;;;;;2102369;28;20859;-70
2023/06/17 04:22:43;;;;;;;5.72;5.13;;;18.80;82.20;;;;;;2096191;28;20051;-71
2023/06/17 04:23:43;;;;;;;5.78;5.18;;;18.90;82.00;;;;;;2097529;28;20028;-71
2023/06/17 04:24:44;;;;;;;6.13;4.95;;;19.10;81.00;;;;;;2098822;28;20113;-71
2023/06/17 04:25:45;;;;;;;8.60;5.47;;;19.20;80.30;;;;;;2097829;28;20036;-71
2023/06/17 04:26:46;;;;;;;6.20;4.78;;;19.20;80.10;;;;;;2098050;28;20021;-71
2023/06/17 04:27:53;;;;;;;7.68;5.75;;;19.20;80.20;;;;;;2097983;28;20027;-71
2023/06/17 04:28:54;;;;;;;6.88;5.82;;;19.20;79.50;;;;;;2099602;28;20062;-71
2023/06/17 04:29:56;;;;;;;8.23;5.60;;;19.10;81.00;;;;;;2098864;28;20094;-71
2023/06/17 04:30:59;;;;;;;6.88;4.90;;;19.00;82.30;;;;;;2099944;28;20020;-70
2023/06/17 04:32:01;;;;;;;5.38;4.90;;;19.00;82.10;;;;;;2097247;28;20044;-70
2023/06/17 04:33:02;;;;;;;6.35;5.30;;;19.00;82.70;;;;;;2097767;28;20761;-70
2023/06/17 04:34:05;;;;;;;6.45;5.07;;;18.90;84.20;;;;;;2099217;28;20107;-70
2023/06/17 04:35:06;;;;;;;7.30;5.10;;;18.90;85.00;;;;;;2098730;28;20653;-70
2023/06/17 04:36:08;;;;;;;6.53;5.57;;;18.90;85.60;;;;;;2097390;28;20028;-70
2023/06/17 04:37:09;;;;;;;5.35;4.85;;;18.90;87.20;;;;;;2098980;28;20020;-70
2023/06/17 04:38:10;;;;;;;7.10;4.97;;;18.90;88.30;;;;;;2097609;28;20052;-70
2023/06/17 04:39:10;;;;;;;6.30;4.88;;;19.00;89.10;;;;;;2098245;28;20032;-70
2023/06/17 04:40:12;;;;;;;7.05;5.60;;;19.00;89.70;;;;;;2099435;28;20483;-70
2023/06/17 04:41:12;;;;;;;6.30;5.03;;;19.00;90.00;;;;;;2099690;28;20024;-70
2023/06/17 04:42:14;;;;;;;8.63;5.07;;;19.00;90.00;;;;;;2098236;28;20016;-70
2023/06/17 04:43:15;;;;;;;5.95;4.72;;;19.10;89.60;;;;;;2099235;28;20412;-70
2023/06/17 04:44:15;;;;;;;7.88;5.40;;;19.10;89.80;;;;;;2099664;28;20074;-70
2023/06/17 04:45:17;;;;;;;6.43;5.55;;;19.20;90.20;;;;;;2099894;28;20107;-70
2023/06/17 04:46:17;;;;;;;12.07;5.32;;;19.20;90.50;;;;;;2098648;28;20025;-70
2023/06/17 04:47:19;;;;;;;5.55;4.97;;;19.30;90.70;;;;;;2098804;28;20020;-70
2023/06/17 04:48:20;;;;;;;8.32;5.05;;;19.40;90.70;;;;;;2098181;28;20024;-70
2023/06/17 04:49:21;;;;;;;7.13;5.07;;;19.40;90.50;;;;;;2098651;28;20350;-70
2023/06/17 04:50:23;;;;;;;5.07;4.57;;;19.50;90.10;;;;;;2097315;28;20124;-70
2023/06/17 04:51:24;;;;;;;5.20;4.60;;;19.50;89.40;;;;;;2099774;28;20481;-70
2023/06/17 04:52:25;;;;;;;5.20;4.70;;;19.60;87.90;;;;;;2099707;28;20579;-70
2023/06/17 04:53:26;;;;;;;5.78;4.80;;;19.60;87.10;;;;;;2098364;28;20029;-70
2023/06/17 04:54:28;;;;;;;7.20;4.97;;;19.70;87.40;;;;;;2099389;28;20069;-70
2023/06/17 04:55:35;;;;;;;5.78;5.18;;;19.80;86.20;;;;;;2100412;28;20039;-70
2023/06/17 04:56:36;;;;;;;8.98;5.47;;;19.80;85.00;;;;;;2099264;28;20099;-70
2023/06/17 04:57:37;;;;;;;6.82;5.07;;;19.90;85.20;;;;;;2097038;28;20024;-70
2023/06/17 04:58:37;;;;;;;7.55;5.28;;;20.00;86.80;;;;;;2099123;28;20020;-70
2023/06/17 04:59:38;;;;;;;5.57;5.00;;;20.10;85.90;;;;;;2097423;28;20090;-72
2023/06/17 05:00:38;;;;;;;6.40;5.43;;;20.20;86.70;;;;;;2098834;28;20030;-71
2023/06/17 05:01:39;;;;;;;9.70;5.90;;;20.20;86.30;;;;;;2099377;28;20020;-71
2023/06/17 05:02:40;;;;;;;7.93;5.50;;;20.30;86.20;;;;;;2097618;28;20023;-71
2023/06/17 05:03:40;;;;;;;8.20;5.10;;;20.40;85.20;;;;;;2098986;28;20023;-71
2023/06/17 05:04:41;;;;;;;7.05;5.30;;;20.50;84.40;;;;;;2098921;28;20029;-70
2023/06/17 05:05:41;;;;;;;6.05;5.30;;;20.60;84.70;;;;;;2096913;28;20032;-70
2023/06/17 05:06:44;;;;;;;6.97;6.03;;;20.70;83.50;;;;;;2100285;28;20024;-70
2023/06/17 05:07:44;;;;;;;6.47;5.47;;;20.70;82.60;;;;;;2099179;28;20031;-70
2023/06/17 05:08:45;;;;;;;9.00;6.13;;;20.80;82.30;;;;;;2099123;28;20032;-70
2023/06/17 05:09:45;;;;;;;6.55;5.95;;;20.90;82.20;;;;;;2098556;28;20032;-70
2023/06/17 05:10:46;;;;;;;6.80;5.85;;;21.00;82.10;;;;;;2103105;28;20016;-70
2023/06/17 05:11:46;;;;;;;9.13;6.50;;;21.00;81.20;;;;;;2104412;28;20016;-70
2023/06/17 05:12:47;;;;;;;7.45;6.45;;;21.10;81.20;;;;;;2100376;28;20016;-70
2023/06/17 05:13:47;;;;;;;7.72;6.93;;;21.20;78.20;;;;;;2096413;28;20028;-71
2023/06/17 05:14:48;;;;;;;12.23;7.15;;;21.30;76.20;;;;;;2098723;28;20017;-71
2023/06/17 05:15:48;;;;;;;9.15;7.45;;;21.30;75.10;;;;;;2097072;28;20028;-71
2023/06/17 05:16:49;;;;;;;9.77;6.35;;;21.40;74.60;;;;;;2097678;28;20033;-71
2023/06/17 05:17:49;;;;;;;7.95;6.35;;;21.50;73.80;;;;;;2100392;28;20027;-71
2023/06/17 05:18:50;;;;;;;8.18;6.55;;;21.60;74.10;;;;;;2098404;28;20027;-71
2023/06/17 05:19:50;;;;;;;6.82;6.13;;;21.70;72.50;;;;;;2098458;28;20023;-71
2023/06/17 05:20:51;;;;;;;9.15;6.50;;;21.80;72.30;;;;;;2097830;28;20109;-71
2023/06/17 05:21:51;;;;;;;7.75;6.95;;;21.90;71.80;;;;;;2098706;28;20119;-71